Whitecourt Airport
CYZU : now visible

Airfield :











YOU CAN JOIN US ON...

 
LOGIN :

Register | Disclaimer

   EN    FR    IT 

 









Legend :    VFR   Marginal VFR   IFR   Intensive IFR   Very Intensive IFR
Visi :
Ceiling :
>= 8 km
>= 3000ft
5 to 8 km
1000 to 3000 ft
1500m to 5 km
500 to 1000 ft
800 to 1500m
200 to 500 ft
< 800m
< 200 ft
Symbols :   Thunderstorms  Fog  Heavy snow  Heavy precipitations  Wind > 20 kt






- Airport Elevation : 2567 ft
- IATA code : YZU


CYZU - Whitecourt

CURRENT METAR :
  • 231800Z 16005KT 100V200 15SM FEW020 BKN067 BKN085 10/03 A2993 RMK SC1AC6AC1 SC TR SLP153

EXPIRED METARs :
  • 231700Z 12004KT 070V170 15SM BKN018 BKN080 10/05 A2993 RMK CU6AC1 CIG RAG SLP156
  • 231600Z 19004KT 100V230 15SM BKN013 09/05 A2995 RMK CU7 CIG RAG SLP161
  • 231515Z VRB02KT 15SM FEW005 BKN010 BKN090 07/05 A2995 RMK CF1SC6AC1 CF TR SLP165
  • 231500Z VRB02KT 15SM BKN010 BKN090 07/05 A2995 RMK SC5AC2 SLP163
  • 231438Z 06002KT 15SM BKN010 BKN090 07/05 A2995 RMK SC5AC2 SLP164
  • 231400Z 36003KT 15SM VCFG BKN009 BKN090 07/05 A2995 RMK SF4AC2 VCFG W SLP163
  • 231348Z 34002KT 15SM VCFG BKN009 BKN090 06/05 A2995 RMK SF5AC2 VCFG W SLP163
  • 231329Z 00000KT 15SM VCFG FEW008 BKN090 06/05 A2995 RMK SF1AC6 SLP163

TAF TAF CYZU
Valid from the 23 at 14:00 until the 23 at 23:00 UTC


231410Z 2314/2323 01003KT P6SM BKN009 BKN090
TEMPO 2314/2315 BKN006
PROB30 2314/2315 3/4SM BR VV006
FM231500 04003KT P6SM BKN010 BKN090
BECMG 2315/2317 BKN015
FM231700 05003KT P6SM BKN020 BKN090
BECMG 2317/2319 BKN030
FM231900 05003KT P6SM BKN030
TEMPO 2320/2323 P6SM -SHRA BKN025 RMK NXT FCST BY 231900Z
CZEG FIR / North America



MET'MAP, your aeronautical weather chart ! - Copyright ORBIFLY December 2007 - Disclaimer

ORBIFLY MET'MAP TEAM :

Programming & Development : Alexandra Zaïnal
Original concept : Baudouin d'Aumeries
Technical & hardware support : Manuel Goepfert
Assistance : Marc-Olivier Méhu




SOURCES & CREDITS :

   NOAA       Earth
Advisory